Latest Coastal Weather Observations for Maroochydore

IDQ60701

Issued at 6:42 am EST Wednesday 28 September 2016 (issued every 10 minutes, with the page automatically refreshed every 10 minutes)

About coastal observations | Map of coastal stations | Coastal observations for QLD | Marine services | Other Formats
Station Details ID: 040861 Name: SUNSHINE COAST AIRPORT Lat: -26.60 Lon: 153.09 Height: 3.3 m
Data from the previous 72 hours. | See also: Recent months at Maroochydore
Date/Time
EST
Temp
°C
Wind Pressure Rain since
9am
mm
Weather Cloud Vis
km
Sea
Height
m
Swell
Dir  Spd
kts
Gust
kts
hPa Trend Height
m
Period
s
Dir
28/06:30am 13.0 W 6 8 1013.2 - 0.0 - - 10 - - - -
28/06:00am 10.4 WNW 7 8 1012.8 - 0.0 - - 10 - - - -
28/05:30am 9.7 WNW 7 9 1012.4 - 0.0 - - 10 - - - -
28/05:00am 9.1 WNW 7 8 1012.1 - 0.0 - - 10 - - - -
28/04:30am 9.4 NW 4 4 1011.8 - 0.0 - - 10 - - - -
28/04:00am 9.3 WNW 6 8 1011.6 - 0.0 - - 10 - - - -
28/03:30am 9.9 W 7 8 1011.4 - 0.0 - - 10 - - - -
28/03:00am 9.9 W 7 8 1011.6 - 0.0 - - 10 - - - -
28/02:30am 10.5 WNW 7 8 1011.6 - 0.0 - - 10 - - - -
28/02:00am 10.4 W 7 8 1012.0 - 0.0 - - 10 - - - -
28/01:30am 10.0 WNW 6 7 1011.9 - 0.0 - - 10 - - - -
28/01:00am 10.0 W 4 5 1012.1 - 0.0 - - 10 - - - -
28/12:30am 10.5 W 4 5 1012.5 - 0.0 - - 10 - - - -
28/12:00am 11.2 WNW 5 6 1012.6 - 0.0 - - 10 - - - -
 
Date/Time
EST
Temp
°C
Wind Pressure Rain since
9am
mm
Weather Cloud Vis
km
Sea
Height
m
Swell
Dir  Spd
kts
Gust
kts
hPa Trend Height
m
Period
s
Dir
27/11:30pm 11.7 WNW 8 9 1012.7 - 0.0 - - 10 - - - -
27/11:00pm 11.9 W 5 7 1012.9 - 0.0 - - 10 - - - -
27/10:30pm 12.2 WNW 7 8 1013.1 - 0.0 - - 10 - - - -
27/10:00pm 12.6 WNW 6 8 1013.0 - 0.0 - - 10 - - - -
27/09:30pm 13.0 W 6 7 1013.0 - 0.0 - - 10 - - - -
27/09:00pm 13.4 W 5 6 1013.1 - 0.0 - - 10 - - - -
27/08:30pm 13.6 WNW 5 7 1013.0 - 0.0 - - 10 - - - -
27/08:00pm 13.9 NW 5 6 1013.0 - 0.0 - - 10 - - - -
27/07:30pm 16.2 NW 6 7 1012.8 - 0.0 - - 10 - - - -
27/07:00pm 16.3 WNW 4 5 1012.5 - 0.0 - - 10 - - - -
27/06:30pm 17.3 NW 5 8 1012.5 - 0.0 - - 10 - - - -
27/06:00pm 17.8 N 5 7 1012.0 - 0.0 - - 10 - - - -
27/05:30pm 19.3 NNE 9 12 1011.7 - 0.0 - - 10 - - - -
27/05:00pm 20.2 NE 10 12 1011.2 - 0.0 - - 10 - - - -
27/04:30pm 20.6 NE 9 12 1011.1 - 0.0 - - 10 - - - -
27/04:00pm 22.1 NE 11 13 1011.1 - 0.0 - - 10 - - - -
27/03:30pm 22.3 ENE 11 13 1011.1 - 0.0 - - 10 - - - -
27/03:00pm 23.7 E 5 11 1011.5 - 0.0 - - 10 - - - -
27/02:30pm 24.6 SW 8 11 1011.5 - 0.0 - - 10 - - - -
27/02:00pm 24.2 SW 5 9 1011.5 - 0.0 - - 10 - - - -
27/01:30pm 24.1 WSW 6 9 1012.4 - 0.0 - - 10 - - - -
27/01:00pm 23.7 SW 6 9 1012.7 - 0.0 - - 10 - - - -
27/12:30pm 23.3 S 8 11 1013.1 - 0.0 - - 10 - - - -
27/12:00pm 23.0 SW 9 13 1013.1 - 0.0 - - 10 - - - -
27/11:30am 23.2 SSW 8 13 1013.7 - 0.0 - - 10 - - - -
27/11:00am 22.8 WSW 9 13 1013.8 - 0.0 - - 10 - - - -
27/10:30am 22.6 S 11 17 1014.3 - 0.0 - - 10 - - - -
27/10:00am 22.1 SW 14 19 1014.7 - 0.0 - - 10 - - - -
27/09:30am 21.6 SW 14 21 1014.6 - 0.0 - - 10 - - - -
27/09:00am 21.1 SSW 14 21 1014.7 - 0.0 - - 10 - - - -
27/08:30am 20.7 SSW 13 18 1014.3 - 0.0 - - 10 - - - -
27/08:00am 20.2 SSW 10 13 1014.1 - 0.0 - - 10 - - - -
27/07:30am 19.2 SW 7 9 1014.0 - 0.0 - - 10 - - - -
27/07:00am 17.4 SW 8 12 1013.3 - 0.0 - - 10 - - - -
27/06:30am 15.2 WSW 6 6 1013.4 - 0.0 - - 10 - - - -
27/06:00am 15.5 WSW 5 7 1012.8 - 0.0 - - 10 - - - -
27/05:30am 15.7 SW 4 7 1012.7 - 0.0 - - 10 - - - -
27/05:00am 13.9 SW 3 5 1012.3 - 0.0 - - 10 - - - -
27/04:30am 14.0 CALM 0 0 1012.0 - 0.0 - - 10 - - - -
27/04:00am 14.8 W 5 6 1011.7 - 0.0 - - 10 - - - -
27/03:30am 13.9 W 7 8 1011.6 - 0.0 - - 10 - - - -
27/03:00am 12.5 W 3 6 1011.6 - 0.0 - - 10 - - - -
27/02:30am 13.9 WNW 3 5 1011.9 - 0.0 - - 10 - - - -
27/02:00am 14.0 WNW 5 7 1012.0 - 0.0 - - 10 - - - -
27/01:30am 14.3 W 4 5 1012.3 - 0.0 - - 10 - - - -
27/01:00am 14.9 WNW 5 7 1012.7 - 0.0 - - 10 - - - -
27/12:30am 15.4 NW 5 7 1012.4 - 0.0 - - 10 - - - -
27/12:00am 15.0 NW 5 7 1012.4 - 0.0 - - 10 - - - -
 
Date/Time
EST
Temp
°C
Wind Pressure Rain since
9am
mm
Weather Cloud Vis
km
Sea
Height
m
Swell
Dir  Spd
kts
Gust
kts
hPa Trend Height
m
Period
s
Dir
26/11:30pm 15.2 WSW 5 6 1013.0 - 0.0 - - 10 - - - -
26/11:00pm 15.0 W 7 8 1013.0 - 0.0 - - 10 - - - -
26/10:30pm 14.3 WNW 6 7 1012.7 - 0.0 - - 10 - - - -
26/10:00pm 14.0 W 6 8 1013.1 - 0.0 - - 10 - - - -
26/09:30pm 14.7 WNW 3 5 1012.8 - 0.0 - - 10 - - - -
26/09:00pm 14.9 WNW 5 7 1012.7 - 0.0 - - 10 - - - -
26/08:30pm 15.5 NW 6 6 1012.5 - 0.0 - - 10 - - - -
26/08:00pm 15.9 WNW 6 7 1012.3 - 0.0 - - 10 - - - -
26/07:30pm 16.2 NW 6 6 1011.6 - 0.0 - - 10 - - - -
26/07:00pm 16.9 NW 5 6 1011.5 - 0.0 - - 10 - - - -
26/06:30pm 17.7 N 6 7 1011.4 - 0.0 - - 10 - - - -
26/06:00pm 18.8 N 8 10 1011.1 - 0.0 - - 10 - - - -
26/05:30pm 20.1 NNE 8 11 1010.7 - 0.0 - - 10 - - - -
26/05:00pm 21.3 NNE 9 11 1010.4 - 0.0 - - 10 - - - -
26/04:30pm 22.0 NE 9 11 1010.2 - 0.0 - - 10 - - - -
26/04:00pm 22.6 ENE 9 11 1009.8 - 0.0 - - 10 - - - -
26/03:30pm 22.6 ENE 10 12 1009.8 - 0.0 - Partly cloudy 10 - - - -
26/03:00pm 23.3 ENE 9 11 1009.9 - 0.0 - - 10 - - - -
26/02:30pm 23.4 ENE 10 13 1010.0 - 0.0 - - 10 - - - -
26/02:00pm 23.8 ENE 11 14 1009.9 - 0.0 - - 10 - - - -
26/01:30pm 23.8 E 11 14 1010.3 - 0.0 - - 10 - - - -
26/01:00pm 24.7 E 9 13 1010.9 - 0.0 - - 10 - - - -
26/12:30pm 23.5 E 11 15 1011.4 - 0.0 - - 10 - - - -
26/12:00pm 23.6 E 10 13 1011.6 - 0.0 - - 10 - - - -
26/11:30am 23.6 ESE 11 14 1012.0 - 0.0 - - 10 - - - -
26/11:00am 24.3 ESE 11 14 1012.4 - 0.0 - - 10 - - - -
26/10:30am 24.6 S 7 11 1012.7 - 0.0 - - 10 - - - -
26/10:00am 24.4 SSW 10 13 1013.0 - 0.0 - - 10 - - - -
26/09:30am 24.6 S 11 15 1013.1 - 0.0 - - 10 - - - -
26/09:00am 23.4 SSW 11 16 1013.2 - 0.0 - - 10 - - - -
26/08:30am 22.9 SSW 8 14 1013.3 - 0.0 - - 10 - - - -
26/08:00am 21.5 SSW 12 16 1013.2 - 0.0 - - 10 - - - -
26/07:30am 20.4 SW 11 16 1013.0 - 0.0 - - 10 - - - -
26/07:00am 19.3 SW 9 14 1012.6 - 0.0 - - 10 - - - -
26/06:30am 17.7 SSW 5 8 1012.3 - 0.0 - - 10 - - - -
26/06:00am 16.1 SW 7 9 1011.8 - 0.0 - - 10 - - - -
26/05:30am 15.7 SSW 7 8 1011.3 - 0.0 - - 10 - - - -
26/05:00am 16.1 SW 8 9 1011.0 - 0.0 - - 10 - - - -
26/04:30am 16.3 SSW 8 11 1010.7 - 0.0 - - 10 - - - -
26/04:00am 15.9 SW 7 9 1010.7 - 0.0 - - 10 - - - -
26/03:30am 15.8 SSW 6 7 1010.7 - 0.0 - - 10 - - - -
26/03:00am 15.4 SSW 6 9 1010.4 - 0.0 - - 10 - - - -
26/02:30am 13.0 WSW 4 7 1010.5 - 0.0 - - 10 - - - -
26/02:00am 14.8 WSW 5 6 1010.5 - 0.0 - - 10 - - - -
26/01:30am 15.7 SW 8 10 1010.5 - 0.0 - - 10 - - - -
26/01:00am 14.7 W 1 4 1010.9 - 0.0 - - 10 - - - -
26/12:30am 15.0 W 4 5 1010.8 - 0.0 - - 10 - - - -
26/12:00am 18.6 W 5 7 1010.8 - 0.0 - - 10 - - - -
 
Date/Time
EST
Temp
°C
Wind Pressure Rain since
9am
mm
Weather Cloud Vis
km
Sea
Height
m
Swell
Dir  Spd
kts
Gust
kts
hPa Trend Height
m
Period
s
Dir
25/11:30pm 18.6 WSW 9 13 1010.7 - 0.0 - - 10 - - - -
25/11:00pm 19.9 SW 7 11 1010.9 - 0.0 - - 10 - - - -
25/10:30pm 20.7 SW 10 13 1010.6 - 0.0 - - 10 - - - -
25/10:00pm 21.0 WSW 10 15 1010.5 - 0.0 - - 10 - - - -
25/09:30pm 21.7 SSW 7 11 1010.0 - 0.0 - - 10 - - - -
25/09:00pm 22.1 SW 9 12 1009.9 - 0.0 - - 10 - - - -
25/08:30pm 22.8 WSW 10 13 1009.4 - 0.0 - - 10 - - - -
25/08:00pm 22.6 WSW 9 14 1009.0 - 0.0 - - 10 - - - -
25/07:30pm 20.5 WSW 8 12 1008.7 - 0.0 - - 10 - - - -
25/07:00pm 19.3 NW 4 5 1008.3 - 0.0 - Partly cloudy 10 - - - -
25/06:30pm 20.2 N 3 5 1007.8 - 0.0 - Partly cloudy 10 - - - -
25/06:00pm 20.8 NNE 7 9 1007.1 - 0.0 - - 10 - - - -
25/05:30pm 22.1 NNE 9 11 1006.4 - 0.0 - - 10 - - - -
25/05:00pm 22.9 NNE 10 13 1005.9 - 0.0 - Partly cloudy 10 - - - -
25/04:30pm 23.4 NNE 12 15 1005.5 - 0.0 - - 10 - - - -
25/04:00pm 24.2 NNE 11 14 1005.4 - 0.0 - Partly cloudy 10 - - - -
25/03:30pm 24.1 ENE 8 11 1005.2 - 0.0 - Partly cloudy 10 - - - -
25/03:00pm 23.8 NE 10 14 1005.0 - 0.0 - Mostly clear 10 - - - -
25/02:30pm 24.5 E 9 13 1004.9 - 0.0 - Partly cloudy 10 - - - -
25/02:00pm 24.8 ENE 10 13 1005.0 - 0.0 - Partly cloudy 10 - - - -
25/01:30pm 24.7 NE 11 13 1005.3 - 0.0 - Partly cloudy 10 - - - -
25/01:00pm 25.2 NE 9 12 1005.5 - 0.0 - - 10 - - - -
25/12:30pm 26.4 NNE 12 16 1006.0 - 0.0 - - 10 - - - -
25/12:00pm 25.1 NE 11 14 1006.6 - 0.0 - Mostly clear 10 - - - -
25/11:30am 24.3 NE 9 11 1007.3 - 0.0 - - 10 - - - -
25/11:00am 23.7 ENE 7 10 1008.0 - 0.0 - - 10 - - - -
25/10:30am 23.7 E 6 8 1008.5 - 0.0 - Partly cloudy 10 - - - -
25/10:00am 22.8 NE 5 6 1009.0 - 0.0 - Partly cloudy 10 - - - -
25/09:30am 22.2 ENE 6 7 1009.1 - 0.0 - Partly cloudy 10 - - - -
25/09:00am 21.3 NE 4 6 1009.7 - 0.0 - Mostly clear 10 - - - -
25/08:30am 21.7 NE 6 8 1009.6 - 0.0 - - 10 - - - -
25/08:00am 20.9 ENE 2 5 1009.9 - 0.0 - - 10 - - - -
25/07:30am 19.9 SSE 2 4 1010.1 - 0.0 - Partly cloudy 10 - - - -
25/07:00am 16.9 CALM 0 0 1010.0 - 0.0 - - 10 - - - -

Other Formats:

Comma delimited format used in spreadsheet applications
http://www.bom.gov.au/fwo/IDQ60701/IDQ60701.94569.axf

JavaScript Object Notation format (JSON) in row-major order
http://www.bom.gov.au/fwo/IDQ60701/IDQ60701.94569.json